Time,TemperatureF,DewpointF,PressureIn,WindDirection,WindDirectionDegrees,WindSpeedMPH,WindSpeedGustMPH,Humidity,HourlyPrecipIn,Conditions,Clouds,dailyrainin,SolarRadiationWatts/m^2,SoftwareType,DateUTC
2013-05-27 00:01:00,50.0,43.0,-100.00,NW,321,0.0,8.0,78,0.00,,,0.01,0.000000,,2013-05-27 06:01:00,
2013-05-27 00:11:00,50.0,43.0,-100.00,NW,321,0.0,8.0,78,0.00,,,0.01,0.000000,,2013-05-27 06:11:00,
2013-05-27 00:21:00,50.0,43.0,-100.00,NW,321,0.0,8.0,78,0.00,,,0.01,0.000000,,2013-05-27 06:21:00,
2013-05-27 00:32:00,50.0,43.0,-100.00,NW,321,0.0,8.0,78,0.00,,,0.01,0.000000,,2013-05-27 06:32:00,
2013-05-27 00:41:00,50.0,43.0,-100.00,NW,321,0.0,8.0,78,0.00,,,0.01,0.000000,,2013-05-27 06:41:00,
2013-05-27 01:02:00,47.0,45.0,-100.00,NNW,346,5.0,17.0,92,0.12,,,0.13,0.000000,,2013-05-27 07:02:00,
2013-05-27 01:11:00,47.0,45.0,-100.00,NNW,346,5.0,17.0,92,0.12,,,0.13,0.000000,,2013-05-27 07:11:00,
2013-05-27 01:21:00,47.0,45.0,-100.00,NNW,346,5.0,17.0,92,0.12,,,0.13,0.000000,,2013-05-27 07:21:00,
2013-05-27 01:31:00,47.0,45.0,-100.00,NNW,346,5.0,17.0,92,0.12,,,0.13,0.000000,,2013-05-27 07:31:00,
2013-05-27 01:41:00,47.0,45.0,-100.00,NNW,346,5.0,17.0,92,0.12,,,0.13,0.000000,,2013-05-27 07:41:00,
2013-05-27 02:02:00,47.0,43.0,-100.00,ENE,70,6.0,9.0,87,0.03,,,0.16,0.000000,,2013-05-27 08:02:00,
2013-05-27 02:11:00,47.0,43.0,-100.00,ENE,70,6.0,9.0,87,0.03,,,0.16,0.000000,,2013-05-27 08:11:00,
2013-05-27 02:21:00,47.0,43.0,-100.00,ENE,70,6.0,9.0,87,0.03,,,0.16,0.000000,,2013-05-27 08:21:00,
2013-05-27 02:32:00,47.0,43.0,-100.00,ENE,70,6.0,9.0,87,0.03,,,0.16,0.000000,,2013-05-27 08:32:00,
2013-05-27 02:41:00,47.0,43.0,-100.00,ENE,70,6.0,9.0,87,0.03,,,0.16,0.000000,,2013-05-27 08:41:00,
2013-05-27 02:42:00,46.0,42.0,-100.00,NNW,345,2.0,8.0,85,0.00,,,0.16,0.000000,,2013-05-27 08:42:00,
2013-05-27 03:02:00,46.0,42.0,-100.00,NNW,345,2.0,8.0,85,0.00,,,0.16,0.000000,,2013-05-27 09:02:00,
2013-05-27 03:11:00,46.0,42.0,-100.00,NNW,345,2.0,8.0,85,0.00,,,0.16,0.000000,,2013-05-27 09:11:00,
2013-05-27 03:21:00,46.0,42.0,-100.00,NNW,345,2.0,8.0,85,0.00,,,0.16,0.000000,,2013-05-27 09:21:00,
2013-05-27 03:33:00,46.0,42.0,-100.00,NNW,345,2.0,8.0,85,0.00,,,0.16,0.000000,,2013-05-27 09:33:00,
2013-05-27 03:42:00,46.0,41.0,-100.00,NNE,15,3.0,5.0,83,0.00,,,0.16,0.000000,,2013-05-27 09:42:00,
2013-05-27 04:02:00,46.0,41.0,-100.00,NNE,15,3.0,5.0,83,0.00,,,0.16,0.000000,,2013-05-27 10:02:00,
2013-05-27 04:12:00,46.0,41.0,-100.00,NNE,15,3.0,5.0,83,0.00,,,0.16,0.000000,,2013-05-27 10:12:00,
2013-05-27 04:22:00,46.0,41.0,-100.00,NNE,15,3.0,5.0,83,0.00,,,0.16,0.000000,,2013-05-27 10:22:00,
2013-05-27 04:32:00,46.0,41.0,-100.00,NNE,15,3.0,5.0,83,0.00,,,0.16,0.000000,,2013-05-27 10:32:00,
2013-05-27 04:42:00,46.0,42.0,-100.00,NE,52,2.0,5.0,85,0.00,,,0.16,0.000000,,2013-05-27 10:42:00,
2013-05-27 05:02:00,46.0,42.0,-100.00,NE,52,2.0,5.0,85,0.00,,,0.16,0.000000,,2013-05-27 11:02:00,
2013-05-27 05:11:00,46.0,42.0,-100.00,NE,52,2.0,5.0,85,0.00,,,0.16,0.000000,,2013-05-27 11:11:00,
2013-05-27 05:21:00,46.0,42.0,-100.00,NE,52,2.0,5.0,85,0.00,,,0.16,0.000000,,2013-05-27 11:21:00,
2013-05-27 05:32:00,46.0,42.0,-100.00,NE,52,2.0,5.0,85,0.00,,,0.16,0.000000,,2013-05-27 11:32:00,
2013-05-27 05:42:00,46.0,42.0,-100.00,East,84,2.0,6.0,86,0.00,,,0.16,0.000000,,2013-05-27 11:42:00,
2013-05-27 06:01:00,46.0,42.0,-100.00,East,84,2.0,6.0,86,0.00,,,0.16,0.000000,,2013-05-27 12:01:00,
2013-05-27 06:11:00,46.0,42.0,-100.00,East,84,2.0,6.0,86,0.00,,,0.16,0.000000,,2013-05-27 12:11:00,
2013-05-27 06:21:00,46.0,42.0,-100.00,East,84,2.0,6.0,86,0.00,,,0.16,0.000000,,2013-05-27 12:21:00,
2013-05-27 06:31:00,46.0,42.0,-100.00,East,84,2.0,6.0,86,0.00,,,0.16,0.000000,,2013-05-27 12:31:00,
2013-05-27 07:01:00,45.0,41.0,-100.00,East,101,2.0,4.0,87,0.00,,,0.16,6.000000,,2013-05-27 13:01:00,
2013-05-27 07:11:00,45.0,41.0,-100.00,East,101,2.0,4.0,87,0.00,,,0.16,6.000000,,2013-05-27 13:11:00,
2013-05-27 07:21:00,45.0,41.0,-100.00,East,101,2.0,4.0,87,0.00,,,0.16,6.000000,,2013-05-27 13:21:00,
2013-05-27 07:32:00,45.0,41.0,-100.00,East,101,2.0,4.0,87,0.00,,,0.16,6.000000,,2013-05-27 13:32:00,
2013-05-27 07:41:00,45.0,41.0,-100.00,East,101,2.0,4.0,87,0.00,,,0.16,6.000000,,2013-05-27 13:41:00,
2013-05-27 08:01:00,47.0,43.0,-100.00,ESE,119,0.0,4.0,86,0.00,,,0.16,68.000000,,2013-05-27 14:01:00,
2013-05-27 08:11:00,47.0,43.0,-100.00,ESE,119,0.0,4.0,86,0.00,,,0.16,68.000000,,2013-05-27 14:11:00,
2013-05-27 08:21:00,47.0,43.0,-100.00,ESE,119,0.0,4.0,86,0.00,,,0.16,68.000000,,2013-05-27 14:21:00,
2013-05-27 08:31:00,47.0,43.0,-100.00,ESE,119,0.0,4.0,86,0.00,,,0.16,68.000000,,2013-05-27 14:31:00,
2013-05-27 08:41:00,47.0,43.0,-100.00,ESE,119,0.0,4.0,86,0.00,,,0.16,68.000000,,2013-05-27 14:41:00,
2013-05-27 08:42:00,51.0,44.0,-100.00,SW,217,1.0,4.0,76,0.00,,,0.16,251.000000,,2013-05-27 14:42:00,
2013-05-27 09:01:00,51.0,44.0,-100.00,SW,217,1.0,4.0,76,0.00,,,0.16,251.000000,,2013-05-27 15:01:00,
2013-05-27 09:11:00,51.0,44.0,-100.00,SW,217,1.0,4.0,76,0.00,,,0.16,251.000000,,2013-05-27 15:11:00,
2013-05-27 09:21:00,51.0,44.0,-100.00,SW,217,1.0,4.0,76,0.00,,,0.16,251.000000,,2013-05-27 15:21:00,
2013-05-27 09:33:00,51.0,44.0,-100.00,SW,217,1.0,4.0,76,0.00,,,0.16,251.000000,,2013-05-27 15:33:00,
2013-05-27 09:42:00,52.0,45.0,-100.00,South,169,4.0,9.0,76,0.00,,,0.16,344.000000,,2013-05-27 15:42:00,
2013-05-27 10:02:00,52.0,45.0,-100.00,South,169,4.0,9.0,76,0.00,,,0.16,344.000000,,2013-05-27 16:02:00,
2013-05-27 10:12:00,52.0,45.0,-100.00,South,169,4.0,9.0,76,0.00,,,0.16,344.000000,,2013-05-27 16:12:00,
2013-05-27 10:23:00,52.0,45.0,-100.00,South,169,4.0,9.0,76,0.00,,,0.16,344.000000,,2013-05-27 16:23:00,
2013-05-27 10:33:00,52.0,45.0,-100.00,South,169,4.0,9.0,76,0.00,,,0.16,344.000000,,2013-05-27 16:33:00,
2013-05-27 10:42:00,54.0,45.0,-100.00,SSE,158,7.0,12.0,72,0.00,,,0.16,560.000000,,2013-05-27 16:42:00,
2013-05-27 11:02:00,54.0,45.0,-100.00,SSE,158,7.0,12.0,72,0.00,,,0.16,560.000000,,2013-05-27 17:02:00,
2013-05-27 11:11:00,54.0,45.0,-100.00,SSE,158,7.0,12.0,72,0.00,,,0.16,560.000000,,2013-05-27 17:11:00,
2013-05-27 11:22:00,54.0,45.0,-100.00,SSE,158,7.0,12.0,72,0.00,,,0.16,560.000000,,2013-05-27 17:22:00,
2013-05-27 11:32:00,54.0,45.0,-100.00,SSE,158,7.0,12.0,72,0.00,,,0.16,560.000000,,2013-05-27 17:32:00,
2013-05-27 11:42:00,58.0,42.0,-100.00,South,187,10.0,19.0,56,0.00,,,0.16,819.000000,,2013-05-27 17:42:00,
2013-05-27 12:02:00,58.0,42.0,-100.00,South,187,10.0,19.0,56,0.00,,,0.16,819.000000,,2013-05-27 18:02:00,
2013-05-27 12:11:00,58.0,42.0,-100.00,South,187,10.0,19.0,56,0.00,,,0.16,819.000000,,2013-05-27 18:11:00,
2013-05-27 12:21:00,58.0,42.0,-100.00,South,187,10.0,19.0,56,0.00,,,0.16,819.000000,,2013-05-27 18:21:00,
2013-05-27 12:32:00,58.0,42.0,-100.00,South,187,10.0,19.0,56,0.00,,,0.16,819.000000,,2013-05-27 18:32:00,
2013-05-27 13:01:00,59.0,42.0,-100.00,SSW,200,10.0,18.0,53,0.00,,,0.16,784.000000,,2013-05-27 19:01:00,
2013-05-27 13:11:00,59.0,42.0,-100.00,SSW,200,10.0,18.0,53,0.00,,,0.16,784.000000,,2013-05-27 19:11:00,
2013-05-27 13:21:00,59.0,42.0,-100.00,SSW,200,10.0,18.0,53,0.00,,,0.16,784.000000,,2013-05-27 19:21:00,
2013-05-27 13:31:00,59.0,42.0,-100.00,SSW,200,10.0,18.0,53,0.00,,,0.16,784.000000,,2013-05-27 19:31:00,
2013-05-27 13:41:00,59.0,42.0,-100.00,SSW,200,10.0,18.0,53,0.00,,,0.16,784.000000,,2013-05-27 19:41:00,
2013-05-27 14:01:00,59.0,39.0,-100.00,SSW,196,6.0,17.0,47,0.00,,,0.16,593.000000,,2013-05-27 20:01:00,
2013-05-27 14:11:00,59.0,39.0,-100.00,SSW,196,6.0,17.0,47,0.00,,,0.16,593.000000,,2013-05-27 20:11:00,
2013-05-27 14:22:00,59.0,39.0,-100.00,SSW,196,6.0,17.0,47,0.00,,,0.16,593.000000,,2013-05-27 20:22:00,
2013-05-27 14:32:00,59.0,39.0,-100.00,SSW,196,6.0,17.0,47,0.00,,,0.16,593.000000,,2013-05-27 20:32:00,
2013-05-27 14:41:00,59.0,39.0,-100.00,SSW,196,6.0,17.0,47,0.00,,,0.16,593.000000,,2013-05-27 20:41:00,
2013-05-27 14:42:00,62.0,35.0,-100.00,SSW,209,9.0,17.0,36,0.00,,,0.16,538.000000,,2013-05-27 20:42:00,
2013-05-27 15:01:00,62.0,35.0,-100.00,SSW,209,9.0,17.0,36,0.00,,,0.16,538.000000,,2013-05-27 21:01:00,
2013-05-27 15:12:00,62.0,35.0,-100.00,SSW,209,9.0,17.0,36,0.00,,,0.16,538.000000,,2013-05-27 21:12:00,
2013-05-27 15:21:00,62.0,35.0,-100.00,SSW,209,9.0,17.0,36,0.00,,,0.16,538.000000,,2013-05-27 21:21:00,
2013-05-27 15:33:00,62.0,35.0,-100.00,SSW,209,9.0,17.0,36,0.00,,,0.16,538.000000,,2013-05-27 21:33:00,
2013-05-27 15:42:00,61.0,35.0,-100.00,South,177,8.0,17.0,37,0.00,,,0.16,527.000000,,2013-05-27 21:42:00,
2013-05-27 16:02:00,61.0,35.0,-100.00,South,177,8.0,17.0,37,0.00,,,0.16,527.000000,,2013-05-27 22:02:00,
2013-05-27 16:12:00,61.0,35.0,-100.00,South,177,8.0,17.0,37,0.00,,,0.16,527.000000,,2013-05-27 22:12:00,
2013-05-27 16:22:00,61.0,35.0,-100.00,South,177,8.0,17.0,37,0.00,,,0.16,527.000000,,2013-05-27 22:22:00,
2013-05-27 16:32:00,61.0,35.0,-100.00,South,177,8.0,17.0,37,0.00,,,0.16,527.000000,,2013-05-27 22:32:00,
2013-05-27 16:42:00,58.0,37.0,-100.00,SSE,166,4.0,19.0,46,0.00,,,0.16,200.000000,,2013-05-27 22:42:00,
2013-05-27 17:02:00,58.0,37.0,-100.00,SSE,166,4.0,19.0,46,0.00,,,0.16,200.000000,,2013-05-27 23:02:00,
2013-05-27 17:12:00,58.0,37.0,-100.00,SSE,166,4.0,19.0,46,0.00,,,0.16,200.000000,,2013-05-27 23:12:00,
2013-05-27 17:22:00,58.0,37.0,-100.00,SSE,166,4.0,19.0,46,0.00,,,0.16,200.000000,,2013-05-27 23:22:00,
2013-05-27 17:32:00,58.0,37.0,-100.00,SSE,166,4.0,19.0,46,0.00,,,0.16,200.000000,,2013-05-27 23:32:00,
2013-05-27 18:01:00,54.0,40.0,-100.00,SW,230,8.0,21.0,59,0.00,,,0.15,135.000000,,2013-05-28 00:01:00,
2013-05-27 18:11:00,54.0,40.0,-100.00,SW,230,8.0,21.0,59,0.00,,,0.15,135.000000,,2013-05-28 00:11:00,
2013-05-27 18:21:00,54.0,40.0,-100.00,SW,230,8.0,21.0,59,0.00,,,0.15,135.000000,,2013-05-28 00:21:00,
2013-05-27 18:31:00,54.0,40.0,-100.00,SW,230,8.0,21.0,59,0.00,,,0.15,135.000000,,2013-05-28 00:31:00,
2013-05-27 18:41:00,54.0,40.0,-100.00,SW,230,8.0,21.0,59,0.00,,,0.15,135.000000,,2013-05-28 00:41:00,
2013-05-27 19:01:00,49.0,47.0,-100.00,South,174,8.0,19.0,92,0.03,,,0.18,68.000000,,2013-05-28 01:01:00,
2013-05-27 19:11:00,49.0,47.0,-100.00,South,174,8.0,19.0,92,0.03,,,0.18,68.000000,,2013-05-28 01:11:00,
2013-05-27 19:21:00,49.0,47.0,-100.00,South,174,8.0,19.0,92,0.03,,,0.18,68.000000,,2013-05-28 01:21:00,
2013-05-27 19:31:00,49.0,47.0,-100.00,South,174,8.0,19.0,92,0.03,,,0.18,68.000000,,2013-05-28 01:31:00,
2013-05-27 19:41:00,49.0,47.0,-100.00,South,174,8.0,19.0,92,0.03,,,0.18,68.000000,,2013-05-28 01:41:00,
2013-05-27 20:02:00,49.0,48.0,-100.00,SSE,160,6.0,11.0,95,0.02,,,0.20,92.000000,,2013-05-28 02:02:00,
2013-05-27 20:11:00,49.0,48.0,-100.00,SSE,160,6.0,11.0,95,0.02,,,0.20,92.000000,,2013-05-28 02:11:00,
2013-05-27 20:21:00,49.0,48.0,-100.00,SSE,160,6.0,11.0,95,0.02,,,0.20,92.000000,,2013-05-28 02:21:00,
2013-05-27 20:32:00,49.0,48.0,-100.00,SSE,160,6.0,11.0,95,0.02,,,0.20,92.000000,,2013-05-28 02:32:00,
2013-05-27 20:41:00,49.0,48.0,-100.00,SSE,160,6.0,11.0,95,0.02,,,0.20,92.000000,,2013-05-28 02:41:00,
2013-05-27 20:42:00,48.0,46.0,-100.00,SE,131,8.0,12.0,92,0.04,,,0.24,26.000000,,2013-05-28 02:42:00,
2013-05-27 21:01:00,48.0,46.0,-100.00,SE,131,8.0,12.0,92,0.04,,,0.24,26.000000,,2013-05-28 03:01:00,
2013-05-27 21:11:00,48.0,46.0,-100.00,SE,131,8.0,12.0,92,0.04,,,0.24,26.000000,,2013-05-28 03:11:00,
2013-05-27 21:21:00,48.0,46.0,-100.00,SE,131,8.0,12.0,92,0.04,,,0.24,26.000000,,2013-05-28 03:21:00,
2013-05-27 21:33:00,48.0,46.0,-100.00,SE,131,8.0,12.0,92,0.04,,,0.24,26.000000,,2013-05-28 03:33:00,
2013-05-27 21:42:00,48.0,46.0,-100.00,SE,141,4.0,12.0,92,0.01,,,0.25,5.000000,,2013-05-28 03:42:00,
2013-05-27 22:02:00,48.0,46.0,-100.00,SE,141,4.0,12.0,92,0.01,,,0.25,5.000000,,2013-05-28 04:02:00,
2013-05-27 22:12:00,48.0,46.0,-100.00,SE,141,4.0,12.0,92,0.01,,,0.25,5.000000,,2013-05-28 04:12:00,
2013-05-27 22:22:00,48.0,46.0,-100.00,SE,141,4.0,12.0,92,0.01,,,0.25,5.000000,,2013-05-28 04:22:00,
2013-05-27 22:33:00,48.0,46.0,-100.00,SE,141,4.0,12.0,92,0.01,,,0.25,5.000000,,2013-05-28 04:33:00,
2013-05-27 22:42:00,48.0,45.0,-100.00,North,355,1.0,4.0,91,0.00,,,0.25,0.000000,,2013-05-28 04:42:00,
2013-05-27 23:02:00,48.0,45.0,-100.00,North,355,1.0,4.0,91,0.00,,,0.25,0.000000,,2013-05-28 05:02:00,
2013-05-27 23:12:00,48.0,45.0,-100.00,North,355,1.0,4.0,91,0.00,,,0.25,0.000000,,2013-05-28 05:12:00,
2013-05-27 23:22:00,48.0,45.0,-100.00,North,355,1.0,4.0,91,0.00,,,0.25,0.000000,,2013-05-28 05:22:00,
2013-05-27 23:32:00,48.0,45.0,-100.00,North,355,1.0,4.0,91,0.00,,,0.25,0.000000,,2013-05-28 05:32:00,